Townsend, GA (31331)

8:49 PM EDT on July 31, 2015 (GMT -0400)
Center of Liberty | | Change Station
CLOSE
Current Station
Personal Weather Station
Location: Liberty County, GA
Elevation: 21 ft
Nearby Weather Stations

Elev 21 ft 31.82 °N, 81.50 °W | Updated 18 seconds ago

Overcast
Overcast
77.3 °F
Feels Like 79 °F
N
5.8
Wind Variable Wind from WNW
Gusts 5.8 mph

Today
High -- | Low -- °F
--% Chance of Precip.
Yesterday
High -- | Low -- °F
Precip. -- in
6:41 AM 8:22 PM
Full, 100% visible
Pressure 29.93 in
Visibility 10.0 miles
Clouds Scattered Clouds 4700 ft
Heat Index 79 °F
Dew Point 76 °F
Humidity 97%
Rainfall 0.00 in
Snow Depth Not available.
UV 0 out of 12
Pollen 3.30 out of 12
Air Quality Not available.
Flu Activity Not available.
METAR KBQK 010035Z AUTO 23007KT 10SM VCTS SCT047 25/22 A2993 RMK AO1 LTG DSNT S THRU NW

More Conditions Fewer Conditions

Pressure 29.93 in
Visibility 10.0 miles
Clouds Scattered Clouds 4700 ft
Heat Index 79 °F
Dew Point 76 °F
Humidity 97%
Rainfall 0.00 in
Snow Depth Not available.
UV 0 out of 12
Pollen 3.30 out of 12
Air Quality Not available.
Flu Activity Not available.
METAR KBQK 010035Z AUTO 23007KT 10SM VCTS SCT047 25/22 A2993 RMK AO1 LTG DSNT S THRU NW

More Conditions Fewer Conditions

10-Day Weather Forecast

×

Almanac

Astronomy

Jul. 31, 2015 Rise Set
Actual Time
Civil Twilight
Nautical Twilight
Astronomical Twilight
Moon
Length of Visible Light
Length of Day
Tomorrow will be .
, % of the Moon is Illuminated

Today's Extremes

State Highs State Lows

Community

WunderPhotos

Upload Photos

1,842,781 photos uploaded!

WunderBlogs® & News

Nearby

Air Quality

  Air Quality AQ Index Pollutant
Not available.

Snow Depth

Station Depth Elevation

Earthquake Activity

City Distance Mag. Time & Date
Minimum magnitude displayed is 2.5.

Coastal Water Temperatures

Place Temperature

Stations

Nearby Weather Stations

Station Location Temp. Windchill Dew Point Humidity Wind Precip. Elev Updated Type